MGGT/GUA METAR and TAF weather

Enter ICAO airport designator
Station Type Date Time Source
MGGT METAR 2020/01/28 05:00 UTC NOAA

MGGT 280500Z 00000KT 5000 BR FEW016 SCT090 17/16 Q1026 A3030


Station Type Date Time Source
MGGT Decoded METAR 2020/01/28 05:00 UTC NOAA

Guatemala Aeropuertola Aurora , Guatemala (MGGT) 14-35N 090-31W 1489M
Jan 28, 2020 - 12:00 AM EST / 2020.01.28 0500 UTC
Wind: Calm:0
Visibility: 3 mile(s):0
Sky conditions: partly cloudy
Weather: mist
Temperature: 62 F (17 C)
Dew Point: 60 F (16 C)
Relative Humidity: 93%
Pressure (altimeter): 30.3 in. Hg (1026 hPa)
ob: MGGT 280500Z 00000KT 5000 BR FEW016 SCT090 17/16 Q1026 A3030
cycle: 5

Station Type Date Time Source
MGGT TAF 2020/01/28 06:47 UTC NOAA

TAF MGGT 2806/2906 VRB03KT 6000 SCT016 SCT080 TX26/2820Z TN15/2812Z
TEMPO 2809/2814 3000 BR BKN010
BECMG 2815/2817 18008KT FEW018
TEMPO 2820/2824 SCT020TCU
BECMG 2901/2903 VRB03KT SCT016

Example: see airport list